sensor_id;sensor_type;location;lat;lon;timestamp;P1;durP1;ratioP1;P2;durP2;ratioP2
46597;SDS011;32318;48.858;8.252;2023-02-22T00:03:34;14.02;;;6.28;;
46597;SDS011;32318;48.858;8.252;2023-02-22T00:11:34;10.55;;;5.32;;
46597;SDS011;32318;48.858;8.252;2023-02-22T00:19:35;13.55;;;4.80;;
46597;SDS011;32318;48.858;8.252;2023-02-22T00:27:35;11.07;;;4.85;;
46597;SDS011;32318;48.858;8.252;2023-02-22T00:35:35;12.98;;;4.90;;
46597;SDS011;32318;48.858;8.252;2023-02-22T00:43:36;12.85;;;5.25;;
46597;SDS011;32318;48.858;8.252;2023-02-22T00:51:36;11.65;;;5.00;;
46597;SDS011;32318;48.858;8.252;2023-02-22T00:59:36;12.55;;;4.70;;
46597;SDS011;32318;48.858;8.252;2023-02-22T01:07:37;11.73;;;5.68;;
46597;SDS011;32318;48.858;8.252;2023-02-22T01:15:39;10.57;;;4.78;;
46597;SDS011;32318;48.858;8.252;2023-02-22T01:23:43;15.60;;;5.10;;
46597;SDS011;32318;48.858;8.252;2023-02-22T01:31:49;11.30;;;5.28;;
46597;SDS011;32318;48.858;8.252;2023-02-22T01:39:55;14.18;;;5.25;;
46597;SDS011;32318;48.858;8.252;2023-02-22T01:47:55;12.60;;;5.50;;
46597;SDS011;32318;48.858;8.252;2023-02-22T01:56:00;15.87;;;5.77;;
46597;SDS011;32318;48.858;8.252;2023-02-22T02:04:06;14.30;;;5.70;;
46597;SDS011;32318;48.858;8.252;2023-02-22T02:12:11;11.18;;;4.70;;
46597;SDS011;32318;48.858;8.252;2023-02-22T02:37:09;13.02;;;5.82;;
46597;SDS011;32318;48.858;8.252;2023-02-22T02:45:19;11.10;;;4.55;;
46597;SDS011;32318;48.858;8.252;2023-02-22T02:53:30;12.63;;;4.70;;
46597;SDS011;32318;48.858;8.252;2023-02-22T03:26:10;10.60;;;4.53;;
46597;SDS011;32318;48.858;8.252;2023-02-22T03:34:21;17.02;;;6.32;;
46597;SDS011;32318;48.858;8.252;2023-02-22T03:42:27;11.07;;;5.65;;
46597;SDS011;32318;48.858;8.252;2023-02-22T03:50:32;10.60;;;5.53;;
46597;SDS011;32318;48.858;8.252;2023-02-22T03:58:35;13.48;;;5.72;;
46597;SDS011;32318;48.858;8.252;2023-02-22T04:06:36;14.63;;;6.03;;
46597;SDS011;32318;48.858;8.252;2023-02-22T04:14:36;15.65;;;5.90;;
46597;SDS011;32318;48.858;8.252;2023-02-22T04:22:37;13.20;;;5.80;;
46597;SDS011;32318;48.858;8.252;2023-02-22T04:30:37;16.73;;;5.88;;
46597;SDS011;32318;48.858;8.252;2023-02-22T04:38:37;11.32;;;4.95;;
46597;SDS011;32318;48.858;8.252;2023-02-22T04:46:37;13.85;;;5.55;;
46597;SDS011;32318;48.858;8.252;2023-02-22T04:54:38;14.68;;;6.28;;
46597;SDS011;32318;48.858;8.252;2023-02-22T05:02:38;11.77;;;5.93;;
46597;SDS011;32318;48.858;8.252;2023-02-22T05:10:39;14.68;;;5.60;;
46597;SDS011;32318;48.858;8.252;2023-02-22T05:18:39;11.85;;;5.43;;
46597;SDS011;32318;48.858;8.252;2023-02-22T05:26:39;12.35;;;5.82;;
46597;SDS011;32318;48.858;8.252;2023-02-22T05:34:41;13.50;;;5.85;;
46597;SDS011;32318;48.858;8.252;2023-02-22T05:42:41;12.30;;;5.05;;
46597;SDS011;32318;48.858;8.252;2023-02-22T05:50:42;12.73;;;6.05;;
46597;SDS011;32318;48.858;8.252;2023-02-22T05:58:42;14.52;;;6.53;;
46597;SDS011;32318;48.858;8.252;2023-02-22T06:06:43;11.32;;;5.32;;
46597;SDS011;32318;48.858;8.252;2023-02-22T06:14:43;11.45;;;5.38;;
46597;SDS011;32318;48.858;8.252;2023-02-22T06:22:46;11.73;;;4.32;;
46597;SDS011;32318;48.858;8.252;2023-02-22T06:30:47;12.43;;;5.00;;
46597;SDS011;32318;48.858;8.252;2023-02-22T06:38:47;12.88;;;5.13;;
46597;SDS011;32318;48.858;8.252;2023-02-22T06:46:48;11.25;;;4.40;;
46597;SDS011;32318;48.858;8.252;2023-02-22T06:54:52;11.45;;;5.65;;
46597;SDS011;32318;48.858;8.252;2023-02-22T07:02:52;26.30;;;9.80;;
46597;SDS011;32318;48.858;8.252;2023-02-22T07:10:53;17.75;;;7.80;;
46597;SDS011;32318;48.858;8.252;2023-02-22T07:18:54;19.35;;;8.30;;
46597;SDS011;32318;48.858;8.252;2023-02-22T07:26:54;18.98;;;7.93;;
46597;SDS011;32318;48.858;8.252;2023-02-22T07:34:54;15.75;;;7.07;;
46597;SDS011;32318;48.858;8.252;2023-02-22T07:42:58;21.25;;;6.50;;
46597;SDS011;32318;48.858;8.252;2023-02-22T07:51:00;21.38;;;6.82;;
46597;SDS011;32318;48.858;8.252;2023-02-22T07:59:00;19.55;;;7.78;;
46597;SDS011;32318;48.858;8.252;2023-02-22T08:07:00;24.60;;;7.35;;
46597;SDS011;32318;48.858;8.252;2023-02-22T08:15:03;16.98;;;7.80;;
46597;SDS011;32318;48.858;8.252;2023-02-22T08:23:06;18.17;;;7.38;;
46597;SDS011;32318;48.858;8.252;2023-02-22T08:31:07;21.13;;;8.10;;
46597;SDS011;32318;48.858;8.252;2023-02-22T08:39:08;16.20;;;7.53;;
46597;SDS011;32318;48.858;8.252;2023-02-22T08:47:08;15.52;;;6.57;;
46597;SDS011;32318;48.858;8.252;2023-02-22T08:55:08;26.63;;;7.28;;
46597;SDS011;32318;48.858;8.252;2023-02-22T09:03:10;16.83;;;7.18;;
46597;SDS011;32318;48.858;8.252;2023-02-22T09:11:13;24.80;;;6.18;;
46597;SDS011;32318;48.858;8.252;2023-02-22T09:19:13;16.10;;;6.63;;
46597;SDS011;32318;48.858;8.252;2023-02-22T09:27:15;12.80;;;5.80;;
46597;SDS011;32318;48.858;8.252;2023-02-22T09:35:15;15.75;;;6.70;;
46597;SDS011;32318;48.858;8.252;2023-02-22T10:00:12;17.92;;;8.50;;
46597;SDS011;32318;48.858;8.252;2023-02-22T10:08:15;24.65;;;10.05;;
46597;SDS011;32318;48.858;8.252;2023-02-22T10:33:14;21.40;;;9.40;;
46597;SDS011;32318;48.858;8.252;2023-02-22T10:41:20;21.77;;;8.00;;
46597;SDS011;32318;48.858;8.252;2023-02-22T10:49:26;26.77;;;8.88;;
46597;SDS011;32318;48.858;8.252;2023-02-22T10:57:35;20.25;;;8.38;;
46597;SDS011;32318;48.858;8.252;2023-02-22T11:05:37;17.27;;;7.03;;
46597;SDS011;32318;48.858;8.252;2023-02-22T11:13:39;14.82;;;6.15;;
46597;SDS011;32318;48.858;8.252;2023-02-22T11:21:39;22.70;;;8.68;;
46597;SDS011;32318;48.858;8.252;2023-02-22T11:29:39;24.83;;;8.37;;
46597;SDS011;32318;48.858;8.252;2023-02-22T11:37:40;18.80;;;7.60;;
46597;SDS011;32318;48.858;8.252;2023-02-22T11:45:54;16.67;;;8.63;;
46597;SDS011;32318;48.858;8.252;2023-02-22T11:54:18;21.25;;;8.52;;
46597;SDS011;32318;48.858;8.252;2023-02-22T12:19:40;26.38;;;9.75;;
46597;SDS011;32318;48.858;8.252;2023-02-22T12:27:44;27.60;;;9.85;;
46597;SDS011;32318;48.858;8.252;2023-02-22T12:35:52;22.30;;;9.32;;
46597;SDS011;32318;48.858;8.252;2023-02-22T12:44:03;24.98;;;10.38;;
46597;SDS011;32318;48.858;8.252;2023-02-22T13:00:43;27.23;;;9.77;;
46597;SDS011;32318;48.858;8.252;2023-02-22T13:09:00;25.93;;;9.57;;
46597;SDS011;32318;48.858;8.252;2023-02-22T13:58:15;39.65;;;14.05;;
46597;SDS011;32318;48.858;8.252;2023-02-22T14:06:35;25.20;;;11.75;;
46597;SDS011;32318;48.858;8.252;2023-02-22T14:14:36;40.33;;;13.77;;
46597;SDS011;32318;48.858;8.252;2023-02-22T14:23:43;40.72;;;14.27;;
46597;SDS011;32318;48.858;8.252;2023-02-22T14:39:44;27.92;;;12.68;;
46597;SDS011;32318;48.858;8.252;2023-02-22T14:47:49;35.92;;;14.50;;
46597;SDS011;32318;48.858;8.252;2023-02-22T14:56:01;38.67;;;14.30;;
46597;SDS011;32318;48.858;8.252;2023-02-22T15:04:27;30.75;;;13.25;;
46597;SDS011;32318;48.858;8.252;2023-02-22T15:12:32;32.25;;;13.63;;
46597;SDS011;32318;48.858;8.252;2023-02-22T15:20:33;30.13;;;12.93;;
46597;SDS011;32318;48.858;8.252;2023-02-22T15:28:35;27.45;;;12.15;;
46597;SDS011;32318;48.858;8.252;2023-02-22T15:36:37;28.85;;;12.38;;
46597;SDS011;32318;48.858;8.252;2023-02-22T15:44:39;25.20;;;11.57;;
46597;SDS011;32318;48.858;8.252;2023-02-22T16:01:02;29.75;;;13.20;;
46597;SDS011;32318;48.858;8.252;2023-02-22T16:09:08;29.50;;;12.57;;
46597;SDS011;32318;48.858;8.252;2023-02-22T16:33:31;37.08;;;14.45;;
46597;SDS011;32318;48.858;8.252;2023-02-22T16:41:32;32.03;;;14.07;;
46597;SDS011;32318;48.858;8.252;2023-02-22T16:49:33;38.88;;;16.92;;
46597;SDS011;32318;48.858;8.252;2023-02-22T16:57:33;35.88;;;15.95;;
46597;SDS011;32318;48.858;8.252;2023-02-22T17:05:33;38.78;;;16.30;;
46597;SDS011;32318;48.858;8.252;2023-02-22T17:13:37;33.92;;;13.98;;
46597;SDS011;32318;48.858;8.252;2023-02-22T17:21:39;33.25;;;15.40;;
46597;SDS011;32318;48.858;8.252;2023-02-22T17:29:39;33.80;;;15.50;;
46597;SDS011;32318;48.858;8.252;2023-02-22T17:37:46;42.38;;;18.70;;
46597;SDS011;32318;48.858;8.252;2023-02-22T17:45:47;37.78;;;17.00;;
46597;SDS011;32318;48.858;8.252;2023-02-22T17:53:47;36.03;;;15.90;;
46597;SDS011;32318;48.858;8.252;2023-02-22T18:01:47;26.92;;;13.30;;
46597;SDS011;32318;48.858;8.252;2023-02-22T18:09:48;28.42;;;12.80;;
46597;SDS011;32318;48.858;8.252;2023-02-22T18:17:48;30.33;;;13.23;;
46597;SDS011;32318;48.858;8.252;2023-02-22T18:25:50;27.92;;;13.77;;
46597;SDS011;32318;48.858;8.252;2023-02-22T18:33:51;33.17;;;15.95;;
46597;SDS011;32318;48.858;8.252;2023-02-22T18:41:51;38.97;;;15.70;;
46597;SDS011;32318;48.858;8.252;2023-02-22T18:49:52;29.45;;;14.52;;
46597;SDS011;32318;48.858;8.252;2023-02-22T18:57:52;45.80;;;17.55;;
46597;SDS011;32318;48.858;8.252;2023-02-22T19:05:59;59.28;;;22.45;;
46597;SDS011;32318;48.858;8.252;2023-02-22T19:14:02;42.55;;;16.90;;
46597;SDS011;32318;48.858;8.252;2023-02-22T19:22:04;36.45;;;16.77;;
46597;SDS011;32318;48.858;8.252;2023-02-22T19:30:04;33.97;;;15.38;;
46597;SDS011;32318;48.858;8.252;2023-02-22T19:38:05;31.63;;;14.45;;
46597;SDS011;32318;48.858;8.252;2023-02-22T19:46:05;39.60;;;18.55;;
46597;SDS011;32318;48.858;8.252;2023-02-22T19:54:07;44.22;;;18.83;;
46597;SDS011;32318;48.858;8.252;2023-02-22T20:10:13;38.93;;;17.63;;
46597;SDS011;32318;48.858;8.252;2023-02-22T20:18:14;55.85;;;23.08;;
46597;SDS011;32318;48.858;8.252;2023-02-22T20:26:18;50.85;;;20.83;;
46597;SDS011;32318;48.858;8.252;2023-02-22T20:34:21;54.33;;;21.48;;
46597;SDS011;32318;48.858;8.252;2023-02-22T20:42:21;56.88;;;22.50;;
46597;SDS011;32318;48.858;8.252;2023-02-22T20:50:22;50.72;;;22.42;;
46597;SDS011;32318;48.858;8.252;2023-02-22T20:58:24;60.47;;;24.10;;
46597;SDS011;32318;48.858;8.252;2023-02-22T21:06:24;55.95;;;23.33;;
46597;SDS011;32318;48.858;8.252;2023-02-22T21:14:24;68.40;;;24.27;;
46597;SDS011;32318;48.858;8.252;2023-02-22T21:22:25;67.90;;;27.40;;
46597;SDS011;32318;48.858;8.252;2023-02-22T21:30:25;112.60;;;40.25;;
46597;SDS011;32318;48.858;8.252;2023-02-22T21:38:26;89.28;;;35.13;;
46597;SDS011;32318;48.858;8.252;2023-02-22T21:46:27;114.40;;;42.08;;
46597;SDS011;32318;48.858;8.252;2023-02-22T21:54:28;85.80;;;33.88;;
46597;SDS011;32318;48.858;8.252;2023-02-22T22:02:28;73.03;;;31.02;;
46597;SDS011;32318;48.858;8.252;2023-02-22T22:10:28;63.40;;;29.00;;
46597;SDS011;32318;48.858;8.252;2023-02-22T22:18:32;56.75;;;23.42;;
46597;SDS011;32318;48.858;8.252;2023-02-22T22:26:33;51.03;;;23.55;;
46597;SDS011;32318;48.858;8.252;2023-02-22T22:34:33;49.97;;;21.98;;
46597;SDS011;32318;48.858;8.252;2023-02-22T22:42:33;45.37;;;21.37;;
46597;SDS011;32318;48.858;8.252;2023-02-22T22:50:34;51.30;;;22.92;;
46597;SDS011;32318;48.858;8.252;2023-02-22T22:58:34;47.88;;;22.27;;
46597;SDS011;32318;48.858;8.252;2023-02-22T23:06:38;44.38;;;19.75;;
46597;SDS011;32318;48.858;8.252;2023-02-22T23:14:43;46.60;;;20.35;;
46597;SDS011;32318;48.858;8.252;2023-02-22T23:22:44;53.95;;;19.90;;
46597;SDS011;32318;48.858;8.252;2023-02-22T23:30:46;43.45;;;20.35;;
46597;SDS011;32318;48.858;8.252;2023-02-22T23:38:47;50.05;;;21.02;;
46597;SDS011;32318;48.858;8.252;2023-02-22T23:46:48;42.75;;;19.85;;
46597;SDS011;32318;48.858;8.252;2023-02-22T23:54:53;43.97;;;19.73;;
